Time;durP1;ratioP1;P1;durP2;ratioP2;P2;SDS_P1;SDS_P2;PMS_P1;PMS_P2;Temp;Humidity;BMP_temperature;BMP_pressure;BME280_temperature;BME280_humidity;BME280_pressure;Samples;Min_cycle;Max_cycle;Signal;HPM_P1;HPM_P2
2022/04/30 00:02:09;;;;;;;9.10;4.57;;;;;;;;;;4958707;28;20112;-82
2022/04/30 00:04:36;;;;;;;9.80;4.35;;;;;;;;;;4957228;28;20402;-83
2022/04/30 00:07:02;;;;;;;11.68;4.93;;;;;;;;;;4964052;28;20039;-83
2022/04/30 00:09:28;;;;;;;9.52;4.97;;;;;;;;;;4951613;28;20045;-83
2022/04/30 00:11:54;;;;;;;8.27;4.65;;;;;;;;;;4960989;28;20034;-82
2022/04/30 00:14:19;;;;;;;9.57;4.75;;;;;;;;;;4966366;28;20049;-82
2022/04/30 00:16:44;;;;;;;7.97;4.80;;;;;;;;;;4958931;28;20043;-82
2022/04/30 00:19:10;;;;;;;9.02;4.97;;;;;;;;;;4961552;28;20038;-82
2022/04/30 00:21:35;;;;;;;12.65;4.88;;;;;;;;;;4961816;28;20043;-82
2022/04/30 00:24:01;;;;;;;9.55;4.95;;;;;;;;;;4961382;28;20038;-83
2022/04/30 00:26:27;;;;;;;10.88;4.90;;;;;;;;;;4960501;28;20039;-82
2022/04/30 00:28:52;;;;;;;10.02;4.78;;;;;;;;;;4943154;28;20066;-82
2022/04/30 00:31:18;;;;;;;10.98;4.55;;;;;;;;;;4951603;28;20437;-82
2022/04/30 00:33:47;;;;;;;9.38;4.72;;;;;;;;;;4950062;28;20058;-82
2022/04/30 00:36:14;;;;;;;11.35;5.35;;;;;;;;;;4974310;28;20050;-82
2022/04/30 00:38:40;;;;;;;9.88;4.72;;;;;;;;;;4959280;28;20472;-83
2022/04/30 00:41:10;;;;;;;13.50;5.35;;;;;;;;;;4957620;28;20027;-82
2022/04/30 00:43:45;;;;;;;8.40;4.40;;;;;;;;;;4959793;28;20037;-82
2022/04/30 00:46:12;;;;;;;10.10;5.32;;;;;;;;;;4952581;28;20034;-82
2022/04/30 00:48:37;;;;;;;10.00;5.78;;;;;;;;;;4950761;28;20456;-82
2022/04/30 00:51:04;;;;;;;15.38;5.47;;;;;;;;;;4973730;28;20133;-82
2022/04/30 00:53:30;;;;;;;13.05;5.07;;;;;;;;;;4951424;28;20495;-82
2022/04/30 00:55:56;;;;;;;10.77;5.00;;;;;;;;;;4949675;28;20073;-82
2022/04/30 00:58:22;;;;;;;9.60;4.75;;;;;;;;;;4945888;28;20125;-85
2022/04/30 01:00:50;;;;;;;10.90;4.60;;;;;;;;;;4960948;28;20109;-85
2022/04/30 01:03:16;;;;;;;11.68;4.95;;;;;;;;;;4967932;28;20046;-85
2022/04/30 01:05:41;;;;;;;10.13;4.72;;;;;;;;;;4951208;28;20049;-85
2022/04/30 01:08:07;;;;;;;9.30;4.30;;;;;;;;;;4960080;28;20065;-84
2022/04/30 01:10:33;;;;;;;7.47;3.83;;;;;;;;;;4960288;28;20481;-84
2022/04/30 01:12:58;;;;;;;13.15;3.90;;;;;;;;;;4971009;28;20406;-83
2022/04/30 01:15:24;;;;;;;8.65;4.32;;;;;;;;;;4959872;28;20038;-84
2022/04/30 01:17:49;;;;;;;8.38;4.00;;;;;;;;;;4950374;28;20157;-84
2022/04/30 01:20:15;;;;;;;8.73;3.58;;;;;;;;;;4948666;28;20038;-84
2022/04/30 01:23:06;;;;;;;8.43;3.72;;;;;;;;;;4950636;28;20432;-84
2022/04/30 01:25:32;;;;;;;10.23;3.78;;;;;;;;;;4964322;28;20031;-84
2022/04/30 01:27:59;;;;;;;8.60;4.00;;;;;;;;;;4956882;28;20049;-84
2022/04/30 01:30:25;;;;;;;10.68;4.28;;;;;;;;;;4949517;28;20034;-85
2022/04/30 01:38:20;;;;;;;6.30;3.47;;;;;;;;;;4972053;28;20046;-84
2022/04/30 01:40:46;;;;;;;7.30;3.50;;;;;;;;;;4972262;28;20049;-84
2022/04/30 01:43:11;;;;;;;8.77;3.90;;;;;;;;;;4971483;28;20493;-84
2022/04/30 01:45:37;;;;;;;8.32;3.88;;;;;;;;;;4965421;28;20065;-84
2022/04/30 01:48:04;;;;;;;6.47;3.47;;;;;;;;;;4971533;28;20062;-84
2022/04/30 01:50:29;;;;;;;8.80;3.70;;;;;;;;;;4948693;28;20039;-86
2022/04/30 01:52:54;;;;;;;8.20;4.32;;;;;;;;;;4958194;28;20041;-85
2022/04/30 01:55:20;;;;;;;9.38;4.28;;;;;;;;;;4961423;28;20047;-85
2022/04/30 01:57:46;;;;;;;8.30;3.80;;;;;;;;;;4943055;28;20042;-84
2022/04/30 02:00:14;;;;;;;8.77;3.88;;;;;;;;;;4973010;28;20070;-84
2022/04/30 02:02:41;;;;;;;7.88;3.70;;;;;;;;;;4950496;28;20474;-84
2022/04/30 02:05:08;;;;;;;11.57;4.43;;;;;;;;;;4950681;28;20048;-85
2022/04/30 02:07:36;;;;;;;7.70;3.80;;;;;;;;;;4972299;28;20781;-83
2022/04/30 02:10:02;;;;;;;8.43;3.83;;;;;;;;;;4966684;28;20769;-83
2022/04/30 02:12:31;;;;;;;8.85;4.47;;;;;;;;;;4949645;28;20112;-83
2022/04/30 02:14:57;;;;;;;10.15;4.38;;;;;;;;;;4949644;28;20034;-83
2022/04/30 02:17:25;;;;;;;11.98;4.68;;;;;;;;;;4940253;28;20121;-84
2022/04/30 02:22:38;;;;;;;11.38;4.82;;;;;;;;;;4962101;28;20097;-83
2022/04/30 02:25:05;;;;;;;10.30;4.50;;;;;;;;;;4956657;28;20113;-82
2022/04/30 02:27:31;;;;;;;11.05;4.78;;;;;;;;;;4959644;28;20081;-84
2022/04/30 02:29:56;;;;;;;8.88;3.80;;;;;;;;;;4948930;28;20037;-83
2022/04/30 02:32:22;;;;;;;8.45;4.30;;;;;;;;;;4971931;28;20039;-83
2022/04/30 02:34:49;;;;;;;9.70;3.92;;;;;;;;;;4949706;28;20037;-83
2022/04/30 02:37:14;;;;;;;9.13;3.97;;;;;;;;;;4954805;28;20165;-82
2022/04/30 02:39:43;;;;;;;7.85;3.90;;;;;;;;;;4964881;28;20110;-82
2022/04/30 02:42:08;;;;;;;7.32;3.72;;;;;;;;;;4956090;28;20057;-83
2022/04/30 02:44:34;;;;;;;6.65;3.90;;;;;;;;;;4950253;28;20046;-83
2022/04/30 02:47:00;;;;;;;8.77;4.10;;;;;;;;;;4950705;28;20358;-84
2022/04/30 02:49:25;;;;;;;9.40;4.57;;;;;;;;;;4950160;28;20097;-82
2022/04/30 02:51:50;;;;;;;8.10;3.78;;;;;;;;;;4947852;28;20033;-82
2022/04/30 02:54:16;;;;;;;8.10;4.50;;;;;;;;;;4980126;28;20082;-82
2022/04/30 02:56:42;;;;;;;10.75;4.25;;;;;;;;;;4963947;28;20121;-82
2022/04/30 03:01:51;;;;;;;7.68;4.00;;;;;;;;;;4972759;28;20170;-82
2022/04/30 03:04:19;;;;;;;7.75;4.13;;;;;;;;;;4947710;28;20083;-81
2022/04/30 03:06:46;;;;;;;8.32;4.05;;;;;;;;;;4970656;28;20048;-82
2022/04/30 03:09:11;;;;;;;7.17;3.70;;;;;;;;;;4946637;28;20561;-82
2022/04/30 03:11:37;;;;;;;6.85;3.72;;;;;;;;;;4945509;28;20281;-82
2022/04/30 03:14:02;;;;;;;8.75;3.88;;;;;;;;;;4964503;28;20038;-82
2022/04/30 03:21:55;;;;;;;7.93;4.63;;;;;;;;;;4972546;28;20120;-82
2022/04/30 03:24:21;;;;;;;10.85;5.18;;;;;;;;;;4970473;28;20089;-82
2022/04/30 03:26:48;;;;;;;11.98;5.35;;;;;;;;;;4964471;28;20039;-83
2022/04/30 03:29:15;;;;;;;8.10;4.80;;;;;;;;;;4965403;28;20397;-82
2022/04/30 03:31:41;;;;;;;10.30;4.55;;;;;;;;;;4947015;28;20034;-82
2022/04/30 03:34:10;;;;;;;9.25;4.68;;;;;;;;;;4971284;28;20061;-82
2022/04/30 03:36:36;;;;;;;9.27;4.85;;;;;;;;;;4945944;28;20031;-83
2022/04/30 03:39:03;;;;;;;6.47;3.60;;;;;;;;;;4947577;28;20060;-83
2022/04/30 03:41:28;;;;;;;9.02;4.22;;;;;;;;;;4964878;28;20034;-82
2022/04/30 03:43:53;;;;;;;8.20;4.43;;;;;;;;;;4977405;28;20058;-83
2022/04/30 03:46:19;;;;;;;7.75;4.50;;;;;;;;;;4948274;28;20038;-83
2022/04/30 03:48:44;;;;;;;6.47;4.20;;;;;;;;;;4960999;28;20042;-82
2022/04/30 03:51:10;;;;;;;9.95;4.40;;;;;;;;;;4949897;28;20030;-82
2022/04/30 03:53:35;;;;;;;8.30;4.70;;;;;;;;;;4959807;28;20103;-82
2022/04/30 03:56:01;;;;;;;11.65;4.75;;;;;;;;;;4964090;28;20039;-82
2022/04/30 03:58:26;;;;;;;7.72;4.53;;;;;;;;;;4951678;28;20035;-82
2022/04/30 04:00:53;;;;;;;9.88;5.10;;;;;;;;;;4974216;28;20026;-83
2022/04/30 04:03:20;;;;;;;8.55;4.50;;;;;;;;;;4962201;28;20049;-82
2022/04/30 04:05:48;;;;;;;8.50;4.40;;;;;;;;;;4941000;28;20051;-83
2022/04/30 04:08:14;;;;;;;8.73;4.68;;;;;;;;;;4948640;28;20042;-83
2022/04/30 04:10:41;;;;;;;9.82;5.18;;;;;;;;;;4955289;28;20487;-82
2022/04/30 04:18:35;;;;;;;9.75;5.32;;;;;;;;;;4957281;28;20058;-82
2022/04/30 04:21:00;;;;;;;11.10;5.18;;;;;;;;;;4948568;28;20031;-83
2022/04/30 04:23:25;;;;;;;9.30;5.25;;;;;;;;;;4948443;28;20039;-82
2022/04/30 04:26:00;;;;;;;8.80;5.10;;;;;;;;;;4948193;28;20094;-82
2022/04/30 04:28:26;;;;;;;8.18;4.82;;;;;;;;;;4948374;28;20038;-83
2022/04/30 04:30:51;;;;;;;11.40;5.07;;;;;;;;;;4947960;28;20035;-83
2022/04/30 04:33:17;;;;;;;9.45;4.95;;;;;;;;;;4945999;28;20398;-83
2022/04/30 04:35:42;;;;;;;8.27;4.47;;;;;;;;;;4941430;28;20498;-82
2022/04/30 04:38:07;;;;;;;7.57;4.05;;;;;;;;;;4948394;28;20039;-82
2022/04/30 04:40:35;;;;;;;7.88;4.55;;;;;;;;;;4958417;28;20073;-82
2022/04/30 04:43:00;;;;;;;10.35;4.57;;;;;;;;;;4953049;28;20046;-83
2022/04/30 04:45:27;;;;;;;10.05;4.80;;;;;;;;;;4948472;28;20402;-83
2022/04/30 04:47:52;;;;;;;7.57;4.30;;;;;;;;;;4941920;28;20541;-83
2022/04/30 04:50:18;;;;;;;8.85;4.40;;;;;;;;;;4948123;28;20039;-83
2022/04/30 04:52:43;;;;;;;9.02;4.20;;;;;;;;;;4959432;28;20044;-83
2022/04/30 04:55:10;;;;;;;9.80;4.03;;;;;;;;;;4944913;28;20051;-83
2022/04/30 04:57:38;;;;;;;8.70;4.18;;;;;;;;;;4942350;28;20027;-83
2022/04/30 05:00:05;;;;;;;7.47;4.15;;;;;;;;;;4939095;28;20043;-83
2022/04/30 05:02:30;;;;;;;8.17;3.97;;;;;;;;;;4939992;28;20499;-83
2022/04/30 05:04:56;;;;;;;7.75;4.10;;;;;;;;;;4943248;28;20050;-83
2022/04/30 05:07:21;;;;;;;8.65;4.38;;;;;;;;;;4945768;28;20047;-83
2022/04/30 05:09:46;;;;;;;10.38;4.25;;;;;;;;;;4940908;28;20142;-82
2022/04/30 05:12:12;;;;;;;9.82;4.22;;;;;;;;;;4953632;28;20499;-82
2022/04/30 05:14:38;;;;;;;11.50;4.35;;;;;;;;;;4941420;28;20477;-82
2022/04/30 05:17:04;;;;;;;9.60;4.43;;;;;;;;;;4955253;28;20457;-83
2022/04/30 05:19:30;;;;;;;9.63;4.47;;;;;;;;;;4948086;28;20034;-83
2022/04/30 05:21:56;;;;;;;9.57;4.03;;;;;;;;;;4953193;28;20035;-82
2022/04/30 05:24:21;;;;;;;9.80;4.43;;;;;;;;;;4961276;28;20055;-82
2022/04/30 05:26:49;;;;;;;7.45;4.60;;;;;;;;;;4941104;28;20039;-81
2022/04/30 05:29:15;;;;;;;10.05;5.30;;;;;;;;;;4938851;28;20377;-79
2022/04/30 05:31:41;;;;;;;8.25;4.78;;;;;;;;;;4937346;28;20034;-80
2022/04/30 05:34:06;;;;;;;8.02;5.03;;;;;;;;;;4945101;28;20034;-82
2022/04/30 05:36:32;;;;;;;10.27;5.30;;;;;;;;;;4953505;28;20407;-83
2022/04/30 05:38:59;;;;;;;10.75;5.22;;;;;;;;;;4947291;28;20031;-82
2022/04/30 05:41:24;;;;;;;9.63;5.03;;;;;;;;;;4942054;28;20141;-83
2022/04/30 05:43:50;;;;;;;7.95;4.88;;;;;;;;;;4946955;28;20673;-83
2022/04/30 05:46:15;;;;;;;10.95;5.30;;;;;;;;;;4955997;28;20039;-82
2022/04/30 05:48:40;;;;;;;10.95;5.13;;;;;;;;;;4956301;28;20115;-82
2022/04/30 05:51:06;;;;;;;8.50;5.00;;;;;;;;;;4946928;28;20058;-82
2022/04/30 05:53:31;;;;;;;9.13;5.07;;;;;;;;;;4947524;28;20129;-82
2022/04/30 05:55:56;;;;;;;9.50;5.20;;;;;;;;;;4939206;28;20515;-82
2022/04/30 05:58:22;;;;;;;10.13;4.18;;;;;;;;;;4944478;28;20071;-82
2022/04/30 06:00:47;;;;;;;8.20;5.15;;;;;;;;;;4945838;28;20035;-82
2022/04/30 06:03:33;;;;;;;11.10;4.22;;;;;;;;;;4940832;28;20043;-82
2022/04/30 06:05:59;;;;;;;10.13;4.93;;;;;;;;;;4936406;28;20058;-81
2022/04/30 06:08:24;;;;;;;10.23;4.50;;;;;;;;;;4930835;28;20525;-82
2022/04/30 06:10:49;;;;;;;8.95;4.53;;;;;;;;;;4922662;28;20113;-82
2022/04/30 06:13:15;;;;;;;7.97;4.22;;;;;;;;;;4928528;28;20035;-83
2022/04/30 06:15:40;;;;;;;7.38;4.40;;;;;;;;;;4939414;28;20046;-83
2022/04/30 06:18:06;;;;;;;10.48;4.85;;;;;;;;;;4941484;28;20050;-83
2022/04/30 06:20:32;;;;;;;6.70;4.20;;;;;;;;;;4926975;28;20174;-82
2022/04/30 06:22:58;;;;;;;7.50;4.20;;;;;;;;;;4925195;28;20450;-82
2022/04/30 06:25:23;;;;;;;9.25;4.53;;;;;;;;;;4937207;28;20055;-81
2022/04/30 06:27:49;;;;;;;8.68;4.35;;;;;;;;;;4951776;28;20046;-81
2022/04/30 06:30:14;;;;;;;10.43;4.30;;;;;;;;;;4940524;28;20043;-81
2022/04/30 06:32:39;;;;;;;11.07;4.60;;;;;;;;;;4930334;28;20050;-81
2022/04/30 06:35:05;;;;;;;10.18;4.63;;;;;;;;;;4924427;28;20087;-81
2022/04/30 06:37:30;;;;;;;7.28;3.92;;;;;;;;;;4951404;28;20045;-80
2022/04/30 06:39:56;;;;;;;9.68;3.97;;;;;;;;;;4942570;28;20039;-80
2022/04/30 06:42:21;;;;;;;8.75;4.30;;;;;;;;;;4940458;28;20096;-81
2022/04/30 06:44:51;;;;;;;9.88;4.10;;;;;;;;;;4952907;28;20110;-81
2022/04/30 06:47:17;;;;;;;9.15;4.10;;;;;;;;;;4955870;28;20047;-80
2022/04/30 06:49:43;;;;;;;8.18;4.50;;;;;;;;;;4941196;28;20045;-80
2022/04/30 06:52:08;;;;;;;8.90;3.70;;;;;;;;;;4944465;28;20414;-81
2022/04/30 06:57:21;;;;;;;8.07;3.70;;;;;;;;;;4953226;28;20074;-80
2022/04/30 06:59:51;;;;;;;8.55;3.88;;;;;;;;;;4940157;28;20079;-80
2022/04/30 07:02:22;;;;;;;11.90;4.05;;;;;;;;;;4940104;28;20482;-81
2022/04/30 07:04:49;;;;;;;12.40;4.18;;;;;;;;;;4953280;28;20046;-81
2022/04/30 07:07:18;;;;;;;7.80;4.35;;;;;;;;;;4942781;28;20786;-81
2022/04/30 07:09:43;;;;;;;12.13;3.85;;;;;;;;;;4938895;28;20039;-80
2022/04/30 07:12:11;;;;;;;11.45;3.65;;;;;;;;;;4944336;28;20039;-80
2022/04/30 07:14:37;;;;;;;7.38;3.70;;;;;;;;;;4944379;28;20393;-81
2022/04/30 07:17:07;;;;;;;8.05;3.90;;;;;;;;;;4943899;28;20149;-82
2022/04/30 07:19:33;;;;;;;8.27;3.88;;;;;;;;;;4930361;28;20043;-81
2022/04/30 07:21:58;;;;;;;9.45;3.95;;;;;;;;;;4962014;28;20546;-81
2022/04/30 07:24:24;;;;;;;8.10;3.65;;;;;;;;;;4944874;28;20138;-81
2022/04/30 07:26:49;;;;;;;6.82;3.75;;;;;;;;;;4964104;28;20031;-81
2022/04/30 07:29:15;;;;;;;8.65;3.90;;;;;;;;;;4950208;28;20055;-81
2022/04/30 07:31:40;;;;;;;8.13;3.72;;;;;;;;;;4945003;28;20031;-81
2022/04/30 07:34:06;;;;;;;9.25;3.70;;;;;;;;;;4955326;28;20028;-81
2022/04/30 07:36:31;;;;;;;12.77;4.20;;;;;;;;;;4943510;28;20043;-81
2022/04/30 07:38:57;;;;;;;10.38;3.90;;;;;;;;;;4959711;28;20417;-81
2022/04/30 07:41:23;;;;;;;9.10;3.80;;;;;;;;;;4958914;28;20038;-82
2022/04/30 07:43:48;;;;;;;8.43;3.80;;;;;;;;;;4947081;28;20479;-82
2022/04/30 07:46:14;;;;;;;8.10;4.13;;;;;;;;;;4954291;28;20047;-81
2022/04/30 07:48:39;;;;;;;7.88;3.63;;;;;;;;;;4941769;28;20047;-81
2022/04/30 07:51:13;;;;;;;9.43;3.92;;;;;;;;;;4948534;28;20042;-83
2022/04/30 07:53:38;;;;;;;7.47;3.60;;;;;;;;;;4949061;28;20042;-82
2022/04/30 07:56:04;;;;;;;10.35;3.63;;;;;;;;;;4955294;28;20104;-83
2022/04/30 07:58:32;;;;;;;8.00;3.67;;;;;;;;;;4945216;28;20410;-80
2022/04/30 08:00:57;;;;;;;8.65;4.03;;;;;;;;;;4940441;28;20058;-81
2022/04/30 08:03:23;;;;;;;9.65;3.80;;;;;;;;;;4942715;28;20082;-82
2022/04/30 08:05:48;;;;;;;10.57;3.50;;;;;;;;;;4940926;28;20035;-81
2022/04/30 08:08:15;;;;;;;9.02;3.45;;;;;;;;;;4948458;28;20055;-81
2022/04/30 08:10:41;;;;;;;8.85;3.53;;;;;;;;;;4948654;28;20390;-81
2022/04/30 08:13:06;;;;;;;8.73;3.17;;;;;;;;;;4963520;28;20028;-81
2022/04/30 08:15:32;;;;;;;8.73;3.50;;;;;;;;;;4955779;28;20047;-82
2022/04/30 08:17:57;;;;;;;10.70;3.85;;;;;;;;;;4948035;28;20086;-81
2022/04/30 08:20:23;;;;;;;7.80;3.28;;;;;;;;;;4937512;28;20497;-83
2022/04/30 08:22:49;;;;;;;8.40;3.40;;;;;;;;;;4941573;28;20039;-82
2022/04/30 08:25:19;;;;;;;6.95;3.40;;;;;;;;;;4956577;28;20039;-81
2022/04/30 08:27:47;;;;;;;8.07;3.33;;;;;;;;;;4942165;28;20027;-81
2022/04/30 08:30:13;;;;;;;11.25;3.45;;;;;;;;;;4941588;28;20039;-81
2022/04/30 08:32:38;;;;;;;7.18;3.20;;;;;;;;;;4956717;28;20034;-81
2022/04/30 08:35:04;;;;;;;10.30;3.20;;;;;;;;;;4939697;28;20044;-82
2022/04/30 08:37:29;;;;;;;7.50;3.40;;;;;;;;;;4939417;28;20031;-82
2022/04/30 08:39:55;;;;;;;7.97;2.72;;;;;;;;;;4942822;28;21564;-81
2022/04/30 08:42:22;;;;;;;11.50;3.22;;;;;;;;;;4955825;28;20046;-80
2022/04/30 08:44:48;;;;;;;;;;;;;;;;;;4945645;28;20066;-81
2022/04/30 08:47:13;;;;;;;7.40;2.90;;;;;;;;;;4936907;28;20436;-80
2022/04/30 08:49:41;;;;;;;7.93;2.88;;;;;;;;;;4948441;28;20414;-80
2022/04/30 08:52:06;;;;;;;;;;;;;;;;;;4944263;28;20027;-80
2022/04/30 08:54:31;;;;;;;8.82;3.35;;;;;;;;;;4965028;28;19918;-81
2022/04/30 08:56:57;;;;;;;8.43;3.10;;;;;;;;;;4957803;28;20166;-80
2022/04/30 08:59:27;;;;;;;5.72;3.00;;;;;;;;;;4946496;28;20078;-80
2022/04/30 09:01:55;;;;;;;6.22;3.20;;;;;;;;;;4940101;28;20035;-80
2022/04/30 09:04:21;;;;;;;6.40;3.20;;;;;;;;;;4961116;28;20058;-80
2022/04/30 09:06:49;;;;;;;6.32;3.08;;;;;;;;;;4967607;28;20038;-81
2022/04/30 09:09:25;;;;;;;6.38;2.70;;;;;;;;;;4959523;28;20509;-81
2022/04/30 09:11:53;;;;;;;7.57;3.25;;;;;;;;;;4949557;28;20785;-81
2022/04/30 09:14:27;;;;;;;6.38;3.00;;;;;;;;;;4974733;28;20993;-80
2022/04/30 09:17:12;;;;;;;6.00;2.65;;;;;;;;;;4959519;28;20034;-81
2022/04/30 09:19:55;;;;;;;6.32;2.60;;;;;;;;;;4956502;28;20036;-81
2022/04/30 09:22:35;;;;;;;6.95;3.10;;;;;;;;;;4961240;28;20101;-82
2022/04/30 09:25:03;;;;;;;8.02;2.97;;;;;;;;;;4950307;28;20034;-81
2022/04/30 09:27:29;;;;;;;8.05;3.20;;;;;;;;;;4941533;28;20034;-81
2022/04/30 09:29:54;;;;;;;7.68;3.63;;;;;;;;;;4966638;28;20560;-81
2022/04/30 09:32:25;;;;;;;12.13;3.92;;;;;;;;;;4971664;28;20046;-81
2022/04/30 09:37:42;;;;;;;9.82;3.35;;;;;;;;;;4972415;28;20056;-81
2022/04/30 09:40:13;;;;;;;8.57;3.78;;;;;;;;;;4950282;28;20039;-81
2022/04/30 09:42:42;;;;;;;7.70;3.40;;;;;;;;;;4971867;28;20049;-81
2022/04/30 09:45:09;;;;;;;7.25;3.28;;;;;;;;;;4967520;28;20035;-81
2022/04/30 09:47:35;;;;;;;9.50;3.53;;;;;;;;;;4966304;28;20101;-81
2022/04/30 09:55:30;;;;;;;7.75;3.10;;;;;;;;;;4962391;28;20045;-82
2022/04/30 09:57:57;;;;;;;7.68;3.10;;;;;;;;;;4964297;28;20499;-81
2022/04/30 10:00:22;;;;;;;6.88;3.05;;;;;;;;;;4957171;28;20038;-81
2022/04/30 10:02:50;;;;;;;9.00;3.00;;;;;;;;;;4956153;28;20030;-82
2022/04/30 10:05:16;;;;;;;8.20;2.92;;;;;;;;;;4940661;28;20039;-82
2022/04/30 10:07:41;;;;;;;8.48;3.05;;;;;;;;;;4964674;28;20414;-82
2022/04/30 10:10:21;;;;;;;8.68;3.38;;;;;;;;;;4940680;28;20035;-81
2022/04/30 10:13:16;;;;;;;11.35;3.55;;;;;;;;;;4938695;28;20441;-81
2022/04/30 10:15:52;;;;;;;8.90;2.85;;;;;;;;;;4954051;28;20054;-82
2022/04/30 10:18:19;;;;;;;9.43;3.53;;;;;;;;;;4963325;28;20518;-82
2022/04/30 10:20:52;;;;;;;9.60;3.20;;;;;;;;;;4954215;28;20325;-82
2022/04/30 10:23:18;;;;;;;8.20;3.00;;;;;;;;;;4956587;28;20048;-82
2022/04/30 10:25:47;;;;;;;5.72;2.83;;;;;;;;;;4963477;28;20034;-82
2022/04/30 10:28:22;;;;;;;7.28;2.63;;;;;;;;;;4947817;28;20398;-81
2022/04/30 10:31:02;;;;;;;10.38;3.10;;;;;;;;;;4948208;28;20049;-81
2022/04/30 10:33:27;;;;;;;6.80;2.78;;;;;;;;;;4938706;28;20042;-81
2022/04/30 10:36:10;;;;;;;5.93;2.90;;;;;;;;;;4954874;28;20043;-82
2022/04/30 10:38:36;;;;;;;11.20;2.78;;;;;;;;;;4943853;28;20426;-82
2022/04/30 10:41:03;;;;;;;9.13;3.22;;;;;;;;;;4951433;28;20030;-82
2022/04/30 10:43:35;;;;;;;10.52;3.20;;;;;;;;;;4939023;28;20505;-80
2022/04/30 10:46:05;;;;;;;7.13;3.28;;;;;;;;;;4948596;28;20039;-80
2022/04/30 10:48:32;;;;;;;11.32;2.92;;;;;;;;;;4950873;28;20038;-81
2022/04/30 10:51:08;;;;;;;9.53;2.57;;;;;;;;;;4957135;28;20034;-81
2022/04/30 10:53:37;;;;;;;6.25;2.85;;;;;;;;;;4971025;28;20281;-80
2022/04/30 10:56:03;;;;;;;6.95;2.80;;;;;;;;;;4945883;28;21001;-81
2022/04/30 10:58:30;;;;;;;7.50;2.90;;;;;;;;;;4948144;28;20544;-81
2022/04/30 11:00:56;;;;;;;;;;;;;;;;;;4953189;28;20301;-81
2022/04/30 11:03:33;;;;;;;7.70;2.60;;;;;;;;;;4963374;28;20277;-82
2022/04/30 11:05:58;;;;;;;;;;;;;;;;;;4960372;28;20282;-80
2022/04/30 11:08:23;;;;;;;6.47;2.70;;;;;;;;;;4975278;28;20289;-81
2022/04/30 11:10:53;;;;;;;7.40;2.67;;;;;;;;;;4945571;28;20031;-80
2022/04/30 11:13:19;;;;;;;5.35;2.30;;;;;;;;;;4943670;28;20031;-81
2022/04/30 11:15:45;;;;;;;6.97;2.50;;;;;;;;;;4951970;28;20043;-81
2022/04/30 11:18:10;;;;;;;6.35;2.40;;;;;;;;;;4962102;28;20448;-81
2022/04/30 11:20:39;;;;;;;5.72;2.38;;;;;;;;;;4957898;28;20114;-82
2022/04/30 11:23:04;;;;;;;5.88;2.33;;;;;;;;;;4974428;28;20043;-82
2022/04/30 11:25:34;;;;;;;5.93;2.40;;;;;;;;;;4958013;28;20038;-82
2022/04/30 11:27:59;;;;;;;6.30;2.35;;;;;;;;;;4959726;28;20066;-81
2022/04/30 11:30:25;;;;;;;8.25;3.05;;;;;;;;;;4945372;28;20077;-81
2022/04/30 11:32:50;;;;;;;5.45;2.55;;;;;;;;;;4945880;28;20045;-80
2022/04/30 11:35:16;;;;;;;6.68;2.67;;;;;;;;;;4961799;28;20402;-82
2022/04/30 11:37:45;;;;;;;5.40;2.35;;;;;;;;;;4960630;28;20501;-79
2022/04/30 11:40:12;;;;;;;10.73;3.42;;;;;;;;;;4959304;28;20042;-78
2022/04/30 11:42:37;;;;;;;5.90;2.72;;;;;;;;;;4946764;28;20636;-78
2022/04/30 11:45:03;;;;;;;10.15;3.08;;;;;;;;;;4963399;28;20051;-78
2022/04/30 11:47:29;;;;;;;5.40;2.70;;;;;;;;;;4959157;28;20055;-77
2022/04/30 11:50:10;;;;;;;7.00;2.53;;;;;;;;;;4975715;28;20045;-78
2022/04/30 11:52:36;;;;;;;4.68;2.20;;;;;;;;;;4958705;28;20109;-77
2022/04/30 11:55:05;;;;;;;7.63;2.97;;;;;;;;;;4951329;28;20114;-77
2022/04/30 11:57:34;;;;;;;7.05;2.95;;;;;;;;;;4957705;28;20045;-78
2022/04/30 11:59:59;;;;;;;6.68;2.90;;;;;;;;;;4967396;28;20034;-77
2022/04/30 12:02:28;;;;;;;6.45;2.75;;;;;;;;;;4942392;28;20413;-77
2022/04/30 12:05:00;;;;;;;7.07;3.00;;;;;;;;;;4951457;28;20494;-78
2022/04/30 12:07:35;;;;;;;7.35;2.90;;;;;;;;;;4956759;28;20042;-79
2022/04/30 12:10:00;;;;;;;5.72;2.75;;;;;;;;;;4957477;28;20047;-79
2022/04/30 12:12:28;;;;;;;8.20;2.90;;;;;;;;;;4965695;28;20054;-79
2022/04/30 12:14:54;;;;;;;;;;;;;;;;;;4967855;28;20045;-79
2022/04/30 12:17:30;;;;;;;8.40;2.93;;;;;;;;;;4973040;28;19918;-80
2022/04/30 12:25:49;;;;;;;5.85;2.70;;;;;;;;;;4961396;28;20065;-80
2022/04/30 12:28:14;;;;;;;6.80;2.55;;;;;;;;;;4972730;28;20038;-79
2022/04/30 12:30:53;;;;;;;9.23;3.22;;;;;;;;;;4941410;28;20042;-78
2022/04/30 12:33:18;;;;;;;9.75;3.15;;;;;;;;;;4943081;28;20043;-79
2022/04/30 12:35:44;;;;;;;6.35;2.88;;;;;;;;;;4942658;28;20178;-79
2022/04/30 12:38:14;;;;;;;9.25;3.42;;;;;;;;;;4960635;28;20046;-79
2022/04/30 12:40:44;;;;;;;5.70;3.65;;;;;;;;;;4949542;28;20034;-79
2022/04/30 12:43:10;;;;;;;9.70;3.72;;;;;;;;;;4956582;28;20684;-79
2022/04/30 12:45:37;;;;;;;17.98;7.18;;;;;;;;;;4949384;28;20065;-79
2022/04/30 12:48:04;;;;;;;13.25;4.80;;;;;;;;;;4960910;28;20037;-80
2022/04/30 12:50:32;;;;;;;8.15;4.03;;;;;;;;;;4947306;28;20030;-81
2022/04/30 12:52:57;;;;;;;;;;;;;;;;;;4963180;28;20039;-80
2022/04/30 12:55:22;;;;;;;11.37;4.10;;;;;;;;;;4958587;28;20392;-80
2022/04/30 12:57:48;;;;;;;6.05;3.63;;;;;;;;;;4961421;28;20042;-79
2022/04/30 13:00:18;;;;;;;5.90;3.35;;;;;;;;;;4951055;28;20043;-80
2022/04/30 13:02:44;;;;;;;7.18;3.40;;;;;;;;;;4960820;28;20517;-81
2022/04/30 13:05:11;;;;;;;7.15;3.47;;;;;;;;;;4952772;28;20046;-80
2022/04/30 13:07:37;;;;;;;8.57;3.80;;;;;;;;;;4942943;28;20042;-80
2022/04/30 13:15:51;;;;;;;7.50;3.80;;;;;;;;;;4909149;29;20051;-79
2022/04/30 13:18:16;;;;;;;6.32;3.58;;;;;;;;;;4918285;28;20628;-80
2022/04/30 13:20:42;;;;;;;8.73;3.22;;;;;;;;;;4951025;28;20538;-80
2022/04/30 13:23:08;;;;;;;7.63;3.30;;;;;;;;;;4945132;28;20042;-80
2022/04/30 13:25:33;;;;;;;8.02;3.50;;;;;;;;;;4950221;28;20478;-81
2022/04/30 13:27:58;;;;;;;8.65;4.18;;;;;;;;;;4945045;28;20593;-80
2022/04/30 13:30:25;;;;;;;8.32;4.35;;;;;;;;;;4950837;28;20042;-80
2022/04/30 13:32:50;;;;;;;7.60;3.72;;;;;;;;;;4944509;28;20041;-81
2022/04/30 13:35:17;;;;;;;7.70;3.72;;;;;;;;;;4944734;28;20149;-80
2022/04/30 13:37:43;;;;;;;6.93;3.47;;;;;;;;;;4951135;28;20045;-80
2022/04/30 13:40:12;;;;;;;6.07;3.20;;;;;;;;;;4956949;28;20039;-80
2022/04/30 13:42:38;;;;;;;8.27;3.22;;;;;;;;;;4960483;28;20594;-81
2022/04/30 13:45:04;;;;;;;10.07;3.38;;;;;;;;;;4973091;28;20127;-81
2022/04/30 13:47:30;;;;;;;7.32;2.90;;;;;;;;;;4960462;28;20034;-81
2022/04/30 13:49:55;;;;;;;5.65;2.90;;;;;;;;;;4943169;28;20045;-80
2022/04/30 13:52:21;;;;;;;8.10;3.33;;;;;;;;;;4942314;28;20073;-80
2022/04/30 13:54:47;;;;;;;7.38;3.60;;;;;;;;;;4960127;28;20509;-80
2022/04/30 13:57:12;;;;;;;5.97;3.15;;;;;;;;;;4965651;28;20045;-81
2022/04/30 13:59:38;;;;;;;6.50;3.08;;;;;;;;;;4958066;28;20042;-80
2022/04/30 14:02:04;;;;;;;7.82;2.85;;;;;;;;;;4973573;28;20050;-81
2022/04/30 14:04:34;;;;;;;6.63;2.63;;;;;;;;;;4971452;28;20035;-80
2022/04/30 14:07:00;;;;;;;6.88;2.88;;;;;;;;;;4939664;28;20394;-80
2022/04/30 14:09:25;;;;;;;6.35;2.50;;;;;;;;;;4946977;28;20125;-80
2022/04/30 14:11:51;;;;;;;5.72;2.60;;;;;;;;;;4946270;28;20035;-79
2022/04/30 14:17:01;;;;;;;5.50;2.97;;;;;;;;;;4952382;28;20152;-80
2022/04/30 14:19:27;;;;;;;5.07;2.80;;;;;;;;;;4952766;28;20042;-81
2022/04/30 14:21:53;;;;;;;5.82;3.30;;;;;;;;;;4946164;28;20035;-80
2022/04/30 14:24:18;;;;;;;5.65;2.92;;;;;;;;;;4952519;28;20109;-80
2022/04/30 14:26:43;;;;;;;6.30;2.80;;;;;;;;;;4945641;28;20449;-80
2022/04/30 14:29:12;;;;;;;7.32;2.83;;;;;;;;;;4945320;28;20043;-80
2022/04/30 14:31:38;;;;;;;6.05;2.67;;;;;;;;;;4941038;28;20041;-81
2022/04/30 14:34:03;;;;;;;5.93;2.70;;;;;;;;;;4945916;28;20097;-80
2022/04/30 14:36:33;;;;;;;6.47;2.60;;;;;;;;;;4938775;28;20050;-79
2022/04/30 14:38:58;;;;;;;8.10;2.75;;;;;;;;;;4942065;28;20046;-80
2022/04/30 14:41:23;;;;;;;7.45;2.75;;;;;;;;;;4954109;28;20046;-80
2022/04/30 14:43:49;;;;;;;5.95;2.58;;;;;;;;;;4946821;28;20041;-79
2022/04/30 14:46:15;;;;;;;4.97;2.80;;;;;;;;;;4947069;28;20039;-80
2022/04/30 14:48:40;;;;;;;5.00;2.70;;;;;;;;;;4946555;28;20046;-79
2022/04/30 14:51:05;;;;;;;7.60;3.00;;;;;;;;;;4941184;28;20522;-81
2022/04/30 14:53:31;;;;;;;5.78;2.78;;;;;;;;;;4939743;28;20539;-80
2022/04/30 14:55:57;;;;;;;8.88;3.45;;;;;;;;;;4960027;28;20042;-81
2022/04/30 14:58:23;;;;;;;6.22;2.78;;;;;;;;;;4946074;28;20043;-81
2022/04/30 15:00:48;;;;;;;5.10;2.70;;;;;;;;;;4941277;28;20380;-80
2022/04/30 15:03:14;;;;;;;7.60;2.80;;;;;;;;;;4942233;28;20062;-82
2022/04/30 15:05:40;;;;;;;8.23;3.00;;;;;;;;;;4945425;28;20063;-80
2022/04/30 15:08:05;;;;;;;6.82;2.80;;;;;;;;;;4962209;28;20089;-80
2022/04/30 15:10:31;;;;;;;5.20;2.50;;;;;;;;;;4951735;28;20415;-80
2022/04/30 15:12:56;;;;;;;6.35;2.40;;;;;;;;;;4946444;28;20080;-80
2022/04/30 15:15:21;;;;;;;8.63;3.05;;;;;;;;;;4945851;28;20149;-80
2022/04/30 15:17:47;;;;;;;6.10;2.80;;;;;;;;;;4945038;28;20046;-80
2022/04/30 15:20:12;;;;;;;5.60;2.65;;;;;;;;;;4946480;28;20094;-81
2022/04/30 15:22:38;;;;;;;7.03;3.25;;;;;;;;;;4953847;28;20048;-80
2022/04/30 15:25:04;;;;;;;6.72;3.03;;;;;;;;;;4942140;28;20130;-80
2022/04/30 15:27:29;;;;;;;5.82;3.05;;;;;;;;;;4944394;28;20114;-80
2022/04/30 15:29:54;;;;;;;7.55;2.85;;;;;;;;;;4940994;28;20105;-80